Terminal Aerodrome Forecast
Issued by NWS

Home | Current Version | Previous Version | Text Only | Print | Product List | Glossary Off
Versions: 1 2 3 4 5 6 7 8 9 10 11 12 13 14 15 16 17 18

000
FTUS43 KICT 191131
TAFHUT
TAF
KHUT 191131Z 1912/2012 VRB05KT P6SM SCT120
      TEMPO 1912/1914 2SM BR
     FM191700 33020G30KT P6SM VCSH OVC035
     FM192300 33012KT P6SM SCT040
     FM200100 31007KT P6SM SKC=

USA.gov is the U.S. government's official web portal to all federal, state and local government web resources and services.